Weather at Nanjing Lukou International Airport

Public forecast

Using degrees Celsius for public forecast. Weather courtesy of forecast.io.

Current aviation weather report (METAR) for Nanjing Lukou International Airport

2024/06/14 12:00 (retrieved 27 minutes ago)

ZSNJ 141200Z 14002MPS 100V160 CAVOK 31/21 Q1000 NOSIG

Aviation forecast (TAF) for Nanjing Lukou International Airport

2024/06/14 12:03 (retrieved 24 minutes ago)

TAF ZSNJ 140907Z 1412/1512 10003MPS 3000 BR NSC TX34/1506Z TN23/1421Z TEMPO 1421/1423 1600